sensor_id;sensor_type;location;lat;lon;timestamp;pressure;altitude;pressure_sealevel;temperature;humidity
49979;BME280;35869;50.990;6.962;2023-03-16T00:03:25;101702.97;;;2.45;94.12
49979;BME280;35869;50.990;6.962;2023-03-16T00:08:25;101701.22;;;2.39;94.18
49979;BME280;35869;50.990;6.962;2023-03-16T00:13:25;101693.50;;;2.33;94.20
49979;BME280;35869;50.990;6.962;2023-03-16T00:18:27;101695.22;;;2.29;93.14
49979;BME280;35869;50.990;6.962;2023-03-16T00:23:27;101691.81;;;2.29;94.39
49979;BME280;35869;50.990;6.962;2023-03-16T00:28:28;101674.63;;;2.19;94.38
49979;BME280;35869;50.990;6.962;2023-03-16T00:33:29;101668.66;;;2.20;94.18
49979;BME280;35869;50.990;6.962;2023-03-16T00:38:35;101666.09;;;2.20;93.77
49979;BME280;35869;50.990;6.962;2023-03-16T00:43:36;101658.41;;;2.20;94.74
49979;BME280;35869;50.990;6.962;2023-03-16T00:48:38;101670.31;;;2.16;93.13
49979;BME280;35869;50.990;6.962;2023-03-16T00:53:40;101678.88;;;2.17;93.25
49979;BME280;35869;50.990;6.962;2023-03-16T00:58:41;101673.75;;;2.15;92.86
49979;BME280;35869;50.990;6.962;2023-03-16T01:03:42;101672.84;;;2.08;94.04
49979;BME280;35869;50.990;6.962;2023-03-16T01:08:43;101671.16;;;2.10;92.62
49979;BME280;35869;50.990;6.962;2023-03-16T01:13:44;101672.84;;;2.08;93.17
49979;BME280;35869;50.990;6.962;2023-03-16T01:18:45;101666.88;;;2.06;94.25
49979;BME280;35869;50.990;6.962;2023-03-16T01:23:45;101653.22;;;2.12;92.66
49979;BME280;35869;50.990;6.962;2023-03-16T01:28:46;101646.38;;;2.09;93.58
49979;BME280;35869;50.990;6.962;2023-03-16T01:33:46;101629.31;;;2.13;93.28
49979;BME280;35869;50.990;6.962;2023-03-16T01:38:46;101634.44;;;2.14;93.27
49979;BME280;35869;50.990;6.962;2023-03-16T01:43:47;101629.31;;;2.11;93.78
49979;BME280;35869;50.990;6.962;2023-03-16T01:49:01;101620.72;;;2.11;92.25
49979;BME280;35869;50.990;6.962;2023-03-16T01:54:18;101613.03;;;2.09;92.96
49979;BME280;35869;50.990;6.962;2023-03-16T01:59:23;101598.53;;;2.13;92.68
49979;BME280;35869;50.990;6.962;2023-03-16T02:04:30;101589.09;;;2.10;93.43
49979;BME280;35869;50.990;6.962;2023-03-16T02:09:35;101585.72;;;2.18;91.86
49979;BME280;35869;50.990;6.962;2023-03-16T02:14:36;101583.16;;;2.13;92.97
49979;BME280;35869;50.990;6.962;2023-03-16T02:24:57;101587.41;;;2.12;92.47
49979;BME280;35869;50.990;6.962;2023-03-16T02:30:15;101578.00;;;2.10;92.67
49979;BME280;35869;50.990;6.962;2023-03-16T02:35:16;101561.75;;;2.11;91.84
49979;BME280;35869;50.990;6.962;2023-03-16T02:40:28;101559.19;;;2.08;92.06
49979;BME280;35869;50.990;6.962;2023-03-16T02:45:45;101561.75;;;2.06;91.64
49979;BME280;35869;50.990;6.962;2023-03-16T02:50:48;101547.22;;;2.10;91.57
49979;BME280;35869;50.990;6.962;2023-03-16T02:55:49;101553.22;;;2.06;93.07
49979;BME280;35869;50.990;6.962;2023-03-16T03:00:49;101536.94;;;2.01;93.71
49979;BME280;35869;50.990;6.962;2023-03-16T03:05:49;101534.41;;;2.07;92.32
49979;BME280;35869;50.990;6.962;2023-03-16T03:10:50;101545.50;;;2.09;91.49
49979;BME280;35869;50.990;6.962;2023-03-16T03:15:50;101553.19;;;2.09;92.05
49979;BME280;35869;50.990;6.962;2023-03-16T03:20:50;101530.97;;;2.06;92.29
49979;BME280;35869;50.990;6.962;2023-03-16T03:25:50;101530.94;;;2.05;92.97
49979;BME280;35869;50.990;6.962;2023-03-16T03:30:50;101525.81;;;2.03;92.60
49979;BME280;35869;50.990;6.962;2023-03-16T03:35:55;101521.59;;;2.05;92.51
49979;BME280;35869;50.990;6.962;2023-03-16T03:40:56;101522.44;;;2.13;91.27
49979;BME280;35869;50.990;6.962;2023-03-16T03:45:57;101530.97;;;2.06;92.35
49979;BME280;35869;50.990;6.962;2023-03-16T03:50:57;101522.41;;;2.04;91.46
49979;BME280;35869;50.990;6.962;2023-03-16T03:55:57;101519.00;;;2.02;90.82
49979;BME280;35869;50.990;6.962;2023-03-16T04:00:57;101520.69;;;2.03;89.79
49979;BME280;35869;50.990;6.962;2023-03-16T04:05:57;101527.56;;;2.09;90.35
49979;BME280;35869;50.990;6.962;2023-03-16T04:10:58;101526.69;;;2.04;91.53
49979;BME280;35869;50.990;6.962;2023-03-16T04:15:59;101517.28;;;2.04;90.24
49979;BME280;35869;50.990;6.962;2023-03-16T04:21:00;101517.28;;;2.04;91.67
49979;BME280;35869;50.990;6.962;2023-03-16T04:26:00;101509.59;;;2.04;90.21
49979;BME280;35869;50.990;6.962;2023-03-16T04:31:05;101505.31;;;2.02;91.43
49979;BME280;35869;50.990;6.962;2023-03-16T04:36:06;101497.63;;;2.05;92.04
49979;BME280;35869;50.990;6.962;2023-03-16T04:41:08;101489.94;;;2.00;91.53
49979;BME280;35869;50.990;6.962;2023-03-16T04:46:08;101489.94;;;2.00;91.83
49979;BME280;35869;50.990;6.962;2023-03-16T04:51:08;101479.69;;;2.06;92.38
49979;BME280;35869;50.990;6.962;2023-03-16T04:56:09;101483.97;;;2.06;90.91
49979;BME280;35869;50.990;6.962;2023-03-16T05:01:10;101469.44;;;2.08;91.31
49979;BME280;35869;50.990;6.962;2023-03-16T05:06:11;101472.03;;;2.12;91.53
49979;BME280;35869;50.990;6.962;2023-03-16T05:11:11;101472.88;;;2.14;91.44
49979;BME280;35869;50.990;6.962;2023-03-16T05:16:11;101472.88;;;2.08;92.16
49979;BME280;35869;50.990;6.962;2023-03-16T05:21:13;101468.63;;;2.20;91.25
49979;BME280;35869;50.990;6.962;2023-03-16T05:26:13;101470.34;;;2.18;91.52
49979;BME280;35869;50.990;6.962;2023-03-16T05:31:13;101470.34;;;2.18;92.04
49979;BME280;35869;50.990;6.962;2023-03-16T05:36:14;101465.22;;;2.24;90.02
49979;BME280;35869;50.990;6.962;2023-03-16T05:41:14;101476.31;;;2.26;91.28
49979;BME280;35869;50.990;6.962;2023-03-16T05:46:14;101472.06;;;2.29;90.04
49979;BME280;35869;50.990;6.962;2023-03-16T05:51:14;101466.06;;;2.26;90.24
49979;BME280;35869;50.990;6.962;2023-03-16T05:56:14;101466.06;;;2.26;91.04
49979;BME280;35869;50.990;6.962;2023-03-16T06:01:15;101467.78;;;2.33;91.73
49979;BME280;35869;50.990;6.962;2023-03-16T06:06:15;101472.94;;;2.36;90.89
49979;BME280;35869;50.990;6.962;2023-03-16T06:11:16;101480.59;;;2.31;92.20
49979;BME280;35869;50.990;6.962;2023-03-16T06:16:16;101472.91;;;2.39;91.36
49979;BME280;35869;50.990;6.962;2023-03-16T06:21:16;101478.91;;;2.36;91.15
49979;BME280;35869;50.990;6.962;2023-03-16T06:26:16;101478.91;;;2.39;91.66
49979;BME280;35869;50.990;6.962;2023-03-16T06:31:17;101476.38;;;2.47;91.13
49979;BME280;35869;50.990;6.962;2023-03-16T06:36:17;101478.06;;;2.51;89.73
49979;BME280;35869;50.990;6.962;2023-03-16T06:41:17;101475.50;;;2.50;92.67
49979;BME280;35869;50.990;6.962;2023-03-16T06:46:17;101478.94;;;2.56;92.12
49979;BME280;35869;50.990;6.962;2023-03-16T06:51:18;101479.81;;;2.64;91.59
49979;BME280;35869;50.990;6.962;2023-03-16T06:56:18;101484.91;;;2.69;91.67
49979;BME280;35869;50.990;6.962;2023-03-16T07:01:18;101484.94;;;2.72;91.52
49979;BME280;35869;50.990;6.962;2023-03-16T07:06:18;101490.06;;;2.77;91.76
49979;BME280;35869;50.990;6.962;2023-03-16T07:11:18;101497.78;;;2.83;93.04
49979;BME280;35869;50.990;6.962;2023-03-16T07:16:19;101489.19;;;2.93;92.16
49979;BME280;35869;50.990;6.962;2023-03-16T07:21:19;101492.63;;;2.93;93.85
49979;BME280;35869;50.990;6.962;2023-03-16T07:26:20;101486.63;;;3.08;92.11
49979;BME280;35869;50.990;6.962;2023-03-16T07:31:20;101498.59;;;3.25;89.75
49979;BME280;35869;50.990;6.962;2023-03-16T07:36:20;101493.44;;;3.25;90.09
49979;BME280;35869;50.990;6.962;2023-03-16T07:41:20;101487.44;;;3.41;89.60
49979;BME280;35869;50.990;6.962;2023-03-16T07:46:21;101492.53;;;3.48;88.87
49979;BME280;35869;50.990;6.962;2023-03-16T07:51:21;101491.63;;;3.69;87.96
49979;BME280;35869;50.990;6.962;2023-03-16T07:56:21;101477.03;;;3.73;87.42
49979;BME280;35869;50.990;6.962;2023-03-16T08:01:21;101482.09;;;3.87;87.26
49979;BME280;35869;50.990;6.962;2023-03-16T08:06:21;101481.25;;;3.94;87.94
49979;BME280;35869;50.990;6.962;2023-03-16T08:11:22;101473.44;;;4.08;87.94
49979;BME280;35869;50.990;6.962;2023-03-16T08:16:23;101471.72;;;4.11;87.53
49979;BME280;35869;50.990;6.962;2023-03-16T08:21:23;101485.38;;;4.21;88.18
49979;BME280;35869;50.990;6.962;2023-03-16T08:26:23;101478.31;;;4.52;86.38
49979;BME280;35869;50.990;6.962;2023-03-16T08:31:23;101482.59;;;4.50;86.89
49979;BME280;35869;50.990;6.962;2023-03-16T08:36:24;101483.22;;;4.84;83.11
49979;BME280;35869;50.990;6.962;2023-03-16T08:41:24;101464.34;;;4.80;84.37
49979;BME280;35869;50.990;6.962;2023-03-16T08:46:24;101462.47;;;4.99;82.42
49979;BME280;35869;50.990;6.962;2023-03-16T08:51:25;101471.81;;;5.08;84.19
49979;BME280;35869;50.990;6.962;2023-03-16T08:56:25;101457.06;;;5.25;81.97
49979;BME280;35869;50.990;6.962;2023-03-16T09:01:25;101467.19;;;5.39;81.71
49979;BME280;35869;50.990;6.962;2023-03-16T09:06:25;101462.00;;;5.44;82.48
49979;BME280;35869;50.990;6.962;2023-03-16T09:11:26;101458.28;;;5.68;81.29
49979;BME280;35869;50.990;6.962;2023-03-16T09:16:26;101460.88;;;5.66;77.90
49979;BME280;35869;50.990;6.962;2023-03-16T09:21:26;101464.19;;;5.77;79.27
49979;BME280;35869;50.990;6.962;2023-03-16T09:26:26;101462.34;;;5.85;81.34
49979;BME280;35869;50.990;6.962;2023-03-16T09:31:27;101450.13;;;6.04;79.64
49979;BME280;35869;50.990;6.962;2023-03-16T09:36:27;101443.72;;;6.30;80.02
49979;BME280;35869;50.990;6.962;2023-03-16T09:41:47;101434.22;;;6.33;79.19
49979;BME280;35869;50.990;6.962;2023-03-16T09:46:53;101431.41;;;6.47;80.94
49979;BME280;35869;50.990;6.962;2023-03-16T09:52:19;101408.41;;;6.83;78.71
49979;BME280;35869;50.990;6.962;2023-03-16T09:57:29;101417.09;;;6.80;82.29
49979;BME280;35869;50.990;6.962;2023-03-16T10:08:35;101400.94;;;7.15;79.49
49979;BME280;35869;50.990;6.962;2023-03-16T10:13:47;101397.94;;;7.35;75.48
49979;BME280;35869;50.990;6.962;2023-03-16T10:19:04;101395.78;;;7.56;77.02
49979;BME280;35869;50.990;6.962;2023-03-16T10:29:31;101397.72;;;7.46;78.89
49979;BME280;35869;50.990;6.962;2023-03-16T10:34:33;101389.72;;;7.58;79.16
49979;BME280;35869;50.990;6.962;2023-03-16T10:39:37;101392.34;;;7.57;75.04
49979;BME280;35869;50.990;6.962;2023-03-16T10:44:38;101388.38;;;7.79;75.15
49979;BME280;35869;50.990;6.962;2023-03-16T10:49:41;101373.38;;;7.95;73.66
49979;BME280;35869;50.990;6.962;2023-03-16T10:54:49;101365.34;;;8.06;73.55
49979;BME280;35869;50.990;6.962;2023-03-16T10:59:52;101362.97;;;8.32;75.55
49979;BME280;35869;50.990;6.962;2023-03-16T11:04:53;101345.84;;;8.28;78.41
49979;BME280;35869;50.990;6.962;2023-03-16T11:09:54;101333.88;;;8.58;73.09
49979;BME280;35869;50.990;6.962;2023-03-16T11:15:02;101329.31;;;8.66;71.05
49979;BME280;35869;50.990;6.962;2023-03-16T11:20:14;101332.59;;;8.73;78.83
49979;BME280;35869;50.990;6.962;2023-03-16T11:25:26;101336.97;;;9.03;76.65
49979;BME280;35869;50.990;6.962;2023-03-16T11:30:39;101309.78;;;9.46;72.22
49979;BME280;35869;50.990;6.962;2023-03-16T11:41:52;101282.88;;;9.77;74.64
49979;BME280;35869;50.990;6.962;2023-03-16T11:52:13;101288.09;;;10.02;67.19
49979;BME280;35869;50.990;6.962;2023-03-16T12:19:11;101236.22;;;10.52;62.93
49979;BME280;35869;50.990;6.962;2023-03-16T12:24:17;101227.28;;;10.59;62.75
49979;BME280;35869;50.990;6.962;2023-03-16T12:29:23;101220.56;;;10.53;62.65
49979;BME280;35869;50.990;6.962;2023-03-16T12:44:53;101198.00;;;10.77;67.03
49979;BME280;35869;50.990;6.962;2023-03-16T12:50:03;101167.56;;;10.57;68.00
49979;BME280;35869;50.990;6.962;2023-03-16T12:55:16;101167.47;;;10.82;61.30
49979;BME280;35869;50.990;6.962;2023-03-16T13:00:17;101155.56;;;10.77;62.55
49979;BME280;35869;50.990;6.962;2023-03-16T13:05:33;101153.56;;;10.61;69.00
49979;BME280;35869;50.990;6.962;2023-03-16T13:10:34;101148.03;;;10.92;65.41
49979;BME280;35869;50.990;6.962;2023-03-16T13:15:34;101128.97;;;11.14;60.84
49979;BME280;35869;50.990;6.962;2023-03-16T13:20:55;101125.75;;;11.29;63.41
49979;BME280;35869;50.990;6.962;2023-03-16T13:26:08;101121.53;;;11.27;62.13
49979;BME280;35869;50.990;6.962;2023-03-16T13:31:27;101106.28;;;11.17;66.02
49979;BME280;35869;50.990;6.962;2023-03-16T13:36:31;101109.41;;;11.26;59.56
49979;BME280;35869;50.990;6.962;2023-03-16T13:41:33;101106.19;;;11.41;66.61
49979;BME280;35869;50.990;6.962;2023-03-16T13:46:33;101087.00;;;11.43;64.50
49979;BME280;35869;50.990;6.962;2023-03-16T13:51:35;101074.56;;;11.50;67.93
49979;BME280;35869;50.990;6.962;2023-03-16T13:56:37;101059.25;;;11.83;58.93
49979;BME280;35869;50.990;6.962;2023-03-16T14:01:37;101055.91;;;12.00;57.66
49979;BME280;35869;50.990;6.962;2023-03-16T14:06:38;101054.78;;;11.87;65.67
49979;BME280;35869;50.990;6.962;2023-03-16T14:11:38;101038.25;;;11.88;58.70
49979;BME280;35869;50.990;6.962;2023-03-16T14:16:38;101034.53;;;12.12;56.38
49979;BME280;35869;50.990;6.962;2023-03-16T14:21:42;101022.13;;;12.17;58.68
49979;BME280;35869;50.990;6.962;2023-03-16T14:26:45;101004.66;;;12.19;59.44
49979;BME280;35869;50.990;6.962;2023-03-16T14:31:46;101009.81;;;12.02;58.07
49979;BME280;35869;50.990;6.962;2023-03-16T14:36:47;100992.28;;;12.06;60.68
49979;BME280;35869;50.990;6.962;2023-03-16T14:41:49;100988.13;;;12.20;59.05
49979;BME280;35869;50.990;6.962;2023-03-16T14:46:52;100983.03;;;12.17;59.37
49979;BME280;35869;50.990;6.962;2023-03-16T14:51:57;100976.31;;;12.31;61.02
49979;BME280;35869;50.990;6.962;2023-03-16T14:57:01;100982.13;;;12.18;58.22
49979;BME280;35869;50.990;6.962;2023-03-16T15:02:05;100979.25;;;12.06;59.04
49979;BME280;35869;50.990;6.962;2023-03-16T15:07:21;100979.44;;;12.01;60.33
49979;BME280;35869;50.990;6.962;2023-03-16T15:12:22;100972.34;;;12.05;66.51
49979;BME280;35869;50.990;6.962;2023-03-16T15:17:22;100969.94;;;12.00;61.21
49979;BME280;35869;50.990;6.962;2023-03-16T15:22:30;100966.66;;;11.96;60.48
49979;BME280;35869;50.990;6.962;2023-03-16T15:27:34;100951.97;;;12.13;56.42
49979;BME280;35869;50.990;6.962;2023-03-16T15:32:34;100959.69;;;11.97;59.70
49979;BME280;35869;50.990;6.962;2023-03-16T15:37:35;100971.88;;;11.96;59.44
49979;BME280;35869;50.990;6.962;2023-03-16T15:42:35;100965.19;;;11.91;60.70
49979;BME280;35869;50.990;6.962;2023-03-16T15:47:35;100962.72;;;11.88;59.43
49979;BME280;35869;50.990;6.962;2023-03-16T15:52:37;100953.84;;;11.92;58.68
49979;BME280;35869;50.990;6.962;2023-03-16T15:57:38;100929.19;;;11.80;59.69
49979;BME280;35869;50.990;6.962;2023-03-16T16:02:38;100925.00;;;11.76;63.32
49979;BME280;35869;50.990;6.962;2023-03-16T16:07:39;100932.25;;;11.69;58.83
49979;BME280;35869;50.990;6.962;2023-03-16T16:12:39;100926.91;;;11.54;58.46
49979;BME280;35869;50.990;6.962;2023-03-16T16:17:39;100919.38;;;11.47;63.23
49979;BME280;35869;50.990;6.962;2023-03-16T16:22:40;100922.25;;;11.60;64.15
49979;BME280;35869;50.990;6.962;2023-03-16T16:27:40;100922.03;;;11.46;61.29
49979;BME280;35869;50.990;6.962;2023-03-16T16:32:40;100910.88;;;11.44;61.59
49979;BME280;35869;50.990;6.962;2023-03-16T16:37:41;100916.75;;;11.29;61.23
49979;BME280;35869;50.990;6.962;2023-03-16T16:42:43;100909.97;;;11.25;62.82
49979;BME280;35869;50.990;6.962;2023-03-16T16:47:44;100919.63;;;11.23;62.00
49979;BME280;35869;50.990;6.962;2023-03-16T16:52:44;100912.47;;;11.07;62.69
49979;BME280;35869;50.990;6.962;2023-03-16T16:57:47;100915.31;;;11.01;68.99
49979;BME280;35869;50.990;6.962;2023-03-16T17:02:52;100912.81;;;11.00;61.99
49979;BME280;35869;50.990;6.962;2023-03-16T17:07:53;100911.19;;;10.97;65.67
49979;BME280;35869;50.990;6.962;2023-03-16T17:13:20;100926.59;;;10.81;65.01
49979;BME280;35869;50.990;6.962;2023-03-16T17:18:22;100912.56;;;10.85;65.89
49979;BME280;35869;50.990;6.962;2023-03-16T17:23:33;100918.97;;;10.77;61.96
49979;BME280;35869;50.990;6.962;2023-03-16T17:28:36;100920.25;;;10.66;64.31
49979;BME280;35869;50.990;6.962;2023-03-16T17:33:41;100922.84;;;10.66;65.79
49979;BME280;35869;50.990;6.962;2023-03-16T17:38:41;100927.94;;;10.70;64.90
49979;BME280;35869;50.990;6.962;2023-03-16T17:43:41;100921.22;;;10.44;63.02
49979;BME280;35869;50.990;6.962;2023-03-16T17:48:41;100935.00;;;10.46;68.62
49979;BME280;35869;50.990;6.962;2023-03-16T17:53:43;100941.63;;;10.31;68.01
49979;BME280;35869;50.990;6.962;2023-03-16T17:58:54;100941.88;;;10.25;68.01
49979;BME280;35869;50.990;6.962;2023-03-16T18:04:02;100941.31;;;10.17;66.75
49979;BME280;35869;50.990;6.962;2023-03-16T18:09:03;100940.63;;;10.11;69.15
49979;BME280;35869;50.990;6.962;2023-03-16T18:14:06;100944.31;;;10.06;68.40
49979;BME280;35869;50.990;6.962;2023-03-16T18:19:20;100944.41;;;9.81;66.22
49979;BME280;35869;50.990;6.962;2023-03-16T18:24:21;100941.00;;;9.79;65.90
49979;BME280;35869;50.990;6.962;2023-03-16T18:29:21;100937.13;;;9.67;65.34
49979;BME280;35869;50.990;6.962;2023-03-16T18:34:22;100935.66;;;9.60;66.23
49979;BME280;35869;50.990;6.962;2023-03-16T18:39:25;100947.09;;;9.54;67.12
49979;BME280;35869;50.990;6.962;2023-03-16T18:44:25;100946.63;;;9.43;70.91
49979;BME280;35869;50.990;6.962;2023-03-16T18:49:33;100938.97;;;9.40;67.19
49979;BME280;35869;50.990;6.962;2023-03-16T18:54:35;100941.06;;;9.30;70.18
49979;BME280;35869;50.990;6.962;2023-03-16T18:59:35;100932.41;;;9.30;67.91
49979;BME280;35869;50.990;6.962;2023-03-16T19:04:35;100944.13;;;9.17;67.73
49979;BME280;35869;50.990;6.962;2023-03-16T19:09:36;100930.38;;;9.15;68.75
49979;BME280;35869;50.990;6.962;2023-03-16T19:14:36;100925.38;;;9.08;65.47
49979;BME280;35869;50.990;6.962;2023-03-16T19:19:36;100929.31;;;8.95;69.14
49979;BME280;35869;50.990;6.962;2023-03-16T19:24:45;100937.00;;;8.98;67.21
49979;BME280;35869;50.990;6.962;2023-03-16T19:29:46;100927.53;;;8.97;67.00
49979;BME280;35869;50.990;6.962;2023-03-16T19:34:47;100930.50;;;8.85;70.82
49979;BME280;35869;50.990;6.962;2023-03-16T19:39:48;100930.56;;;8.84;68.40
49979;BME280;35869;50.990;6.962;2023-03-16T19:44:49;100931.63;;;8.78;68.98
49979;BME280;35869;50.990;6.962;2023-03-16T19:49:49;100934.56;;;8.67;67.86
49979;BME280;35869;50.990;6.962;2023-03-16T19:54:49;100930.44;;;8.62;71.66
49979;BME280;35869;50.990;6.962;2023-03-16T19:59:54;100920.03;;;8.63;69.71
49979;BME280;35869;50.990;6.962;2023-03-16T20:04:55;100916.00;;;8.54;70.29
49979;BME280;35869;50.990;6.962;2023-03-16T20:09:55;100901.25;;;8.57;70.20
49979;BME280;35869;50.990;6.962;2023-03-16T20:14:56;100893.78;;;8.47;69.86
49979;BME280;35869;50.990;6.962;2023-03-16T20:20:08;100884.41;;;8.43;70.97
49979;BME280;35869;50.990;6.962;2023-03-16T20:25:16;100871.72;;;8.36;70.87
49979;BME280;35869;50.990;6.962;2023-03-16T20:30:17;100878.59;;;8.35;69.84
49979;BME280;35869;50.990;6.962;2023-03-16T20:35:18;100878.91;;;8.26;69.97
49979;BME280;35869;50.990;6.962;2023-03-16T20:40:20;100855.72;;;8.23;71.10
49979;BME280;35869;50.990;6.962;2023-03-16T20:45:24;100849.75;;;8.19;71.89
49979;BME280;35869;50.990;6.962;2023-03-16T20:50:27;100854.03;;;8.20;69.70
49979;BME280;35869;50.990;6.962;2023-03-16T20:55:28;100855.91;;;8.17;71.64
49979;BME280;35869;50.990;6.962;2023-03-16T21:00:37;100848.56;;;8.03;73.07
49979;BME280;35869;50.990;6.962;2023-03-16T21:05:37;100847.81;;;7.99;72.58
49979;BME280;35869;50.990;6.962;2023-03-16T21:10:38;100839.50;;;7.90;73.99
49979;BME280;35869;50.990;6.962;2023-03-16T21:15:38;100834.19;;;7.94;73.63
49979;BME280;35869;50.990;6.962;2023-03-16T21:20:39;100823.97;;;7.90;74.53
49979;BME280;35869;50.990;6.962;2023-03-16T21:25:47;100818.44;;;7.74;73.49
49979;BME280;35869;50.990;6.962;2023-03-16T21:30:51;100821.03;;;7.74;72.75
49979;BME280;35869;50.990;6.962;2023-03-16T21:35:52;100823.38;;;7.82;72.64
49979;BME280;35869;50.990;6.962;2023-03-16T21:40:52;100814.25;;;7.70;74.09
49979;BME280;35869;50.990;6.962;2023-03-16T21:45:53;100806.38;;;7.73;73.42
49979;BME280;35869;50.990;6.962;2023-03-16T21:50:54;100800.50;;;7.68;73.89
49979;BME280;35869;50.990;6.962;2023-03-16T21:55:55;100796.34;;;7.64;75.03
49979;BME280;35869;50.990;6.962;2023-03-16T22:00:55;100791.16;;;7.64;74.84
49979;BME280;35869;50.990;6.962;2023-03-16T22:05:57;100788.47;;;7.67;72.20
49979;BME280;35869;50.990;6.962;2023-03-16T22:10:59;100792.25;;;7.57;73.98
49979;BME280;35869;50.990;6.962;2023-03-16T22:15:59;100781.03;;;7.56;73.76
49979;BME280;35869;50.990;6.962;2023-03-16T22:21:02;100775.13;;;7.53;73.38
49979;BME280;35869;50.990;6.962;2023-03-16T22:26:05;100780.44;;;7.48;76.32
49979;BME280;35869;50.990;6.962;2023-03-16T22:31:06;100765.88;;;7.45;75.64
49979;BME280;35869;50.990;6.962;2023-03-16T22:36:11;100759.69;;;7.49;73.65
49979;BME280;35869;50.990;6.962;2023-03-16T22:41:13;100744.53;;;7.39;75.06
49979;BME280;35869;50.990;6.962;2023-03-16T22:46:19;100738.25;;;7.46;74.06
49979;BME280;35869;50.990;6.962;2023-03-16T22:51:32;100743.47;;;7.44;75.08
49979;BME280;35869;50.990;6.962;2023-03-16T22:56:34;100735.03;;;7.39;74.29
49979;BME280;35869;50.990;6.962;2023-03-16T23:01:40;100747.91;;;7.41;74.63
49979;BME280;35869;50.990;6.962;2023-03-16T23:06:41;100747.00;;;7.42;73.35
49979;BME280;35869;50.990;6.962;2023-03-16T23:11:43;100740.16;;;7.41;74.68
49979;BME280;35869;50.990;6.962;2023-03-16T23:16:44;100742.81;;;7.38;74.77
49979;BME280;35869;50.990;6.962;2023-03-16T23:21:45;100743.56;;;7.41;74.58
49979;BME280;35869;50.990;6.962;2023-03-16T23:26:45;100725.53;;;7.40;75.67
49979;BME280;35869;50.990;6.962;2023-03-16T23:31:45;100723.03;;;7.37;75.23
49979;BME280;35869;50.990;6.962;2023-03-16T23:36:46;100707.44;;;7.40;73.88
49979;BME280;35869;50.990;6.962;2023-03-16T23:41:47;100708.34;;;7.37;73.12
49979;BME280;35869;50.990;6.962;2023-03-16T23:46:49;100715.97;;;7.42;74.65
49979;BME280;35869;50.990;6.962;2023-03-16T23:51:51;100729.88;;;7.38;73.50
49979;BME280;35869;50.990;6.962;2023-03-16T23:56:52;100714.88;;;7.49;74.67
